sensor_id;sensor_type;location;lat;lon;timestamp;P1;durP1;ratioP1;P2;durP2;ratioP2
25752;SDS011;13600;50.816;4.416;2024-02-28T00:01:49;30.52;;;16.45;;
25752;SDS011;13600;50.816;4.416;2024-02-28T00:04:16;32.13;;;16.43;;
25752;SDS011;13600;50.816;4.416;2024-02-28T00:06:42;30.42;;;16.17;;
25752;SDS011;13600;50.816;4.416;2024-02-28T00:09:07;30.88;;;16.40;;
25752;SDS011;13600;50.816;4.416;2024-02-28T00:11:34;33.38;;;16.50;;
25752;SDS011;13600;50.816;4.416;2024-02-28T00:14:00;30.50;;;15.48;;
25752;SDS011;13600;50.816;4.416;2024-02-28T00:16:27;31.02;;;15.32;;
25752;SDS011;13600;50.816;4.416;2024-02-28T00:18:53;29.98;;;16.00;;
25752;SDS011;13600;50.816;4.416;2024-02-28T00:21:19;29.83;;;16.33;;
25752;SDS011;13600;50.816;4.416;2024-02-28T00:23:45;32.40;;;17.27;;
25752;SDS011;13600;50.816;4.416;2024-02-28T00:26:11;29.00;;;16.45;;
25752;SDS011;13600;50.816;4.416;2024-02-28T00:28:37;35.17;;;17.00;;
25752;SDS011;13600;50.816;4.416;2024-02-28T00:31:03;29.33;;;16.60;;
25752;SDS011;13600;50.816;4.416;2024-02-28T00:33:29;33.33;;;16.98;;
25752;SDS011;13600;50.816;4.416;2024-02-28T00:35:54;32.13;;;17.02;;
25752;SDS011;13600;50.816;4.416;2024-02-28T00:38:20;33.70;;;17.20;;
25752;SDS011;13600;50.816;4.416;2024-02-28T00:40:47;33.08;;;17.25;;
25752;SDS011;13600;50.816;4.416;2024-02-28T00:43:13;28.42;;;15.90;;
25752;SDS011;13600;50.816;4.416;2024-02-28T00:45:38;31.70;;;17.02;;
25752;SDS011;13600;50.816;4.416;2024-02-28T00:48:06;28.52;;;16.10;;
25752;SDS011;13600;50.816;4.416;2024-02-28T00:50:32;31.48;;;16.67;;
25752;SDS011;13600;50.816;4.416;2024-02-28T00:52:57;30.70;;;16.92;;
25752;SDS011;13600;50.816;4.416;2024-02-28T00:55:23;32.38;;;16.88;;
25752;SDS011;13600;50.816;4.416;2024-02-28T00:57:49;28.55;;;16.83;;
25752;SDS011;13600;50.816;4.416;2024-02-28T01:00:15;33.33;;;16.88;;
25752;SDS011;13600;50.816;4.416;2024-02-28T01:02:41;35.22;;;17.10;;
25752;SDS011;13600;50.816;4.416;2024-02-28T01:05:07;27.40;;;17.17;;
25752;SDS011;13600;50.816;4.416;2024-02-28T01:07:33;30.48;;;16.95;;
25752;SDS011;13600;50.816;4.416;2024-02-28T01:09:58;31.75;;;17.70;;
25752;SDS011;13600;50.816;4.416;2024-02-28T01:12:24;31.20;;;17.65;;
25752;SDS011;13600;50.816;4.416;2024-02-28T01:14:50;31.05;;;17.58;;
25752;SDS011;13600;50.816;4.416;2024-02-28T01:17:16;31.40;;;17.45;;
25752;SDS011;13600;50.816;4.416;2024-02-28T01:19:42;34.90;;;18.02;;
25752;SDS011;13600;50.816;4.416;2024-02-28T01:22:08;31.17;;;17.67;;
25752;SDS011;13600;50.816;4.416;2024-02-28T01:24:34;35.67;;;18.60;;
25752;SDS011;13600;50.816;4.416;2024-02-28T01:27:00;29.90;;;17.33;;
25752;SDS011;13600;50.816;4.416;2024-02-28T01:29:26;35.47;;;17.33;;
25752;SDS011;13600;50.816;4.416;2024-02-28T01:31:51;31.88;;;17.48;;
25752;SDS011;13600;50.816;4.416;2024-02-28T01:34:17;32.65;;;19.02;;
25752;SDS011;13600;50.816;4.416;2024-02-28T01:36:44;38.22;;;20.33;;
25752;SDS011;13600;50.816;4.416;2024-02-28T01:39:09;31.35;;;19.25;;
25752;SDS011;13600;50.816;4.416;2024-02-28T01:41:35;35.50;;;20.42;;
25752;SDS011;13600;50.816;4.416;2024-02-28T01:44:01;33.85;;;19.77;;
25752;SDS011;13600;50.816;4.416;2024-02-28T01:46:27;39.03;;;20.17;;
25752;SDS011;13600;50.816;4.416;2024-02-28T01:48:54;36.45;;;20.08;;
25752;SDS011;13600;50.816;4.416;2024-02-28T01:51:23;35.45;;;19.40;;
25752;SDS011;13600;50.816;4.416;2024-02-28T01:53:53;35.83;;;19.60;;
25752;SDS011;13600;50.816;4.416;2024-02-28T01:56:20;35.53;;;19.83;;
25752;SDS011;13600;50.816;4.416;2024-02-28T01:58:47;37.53;;;20.17;;
25752;SDS011;13600;50.816;4.416;2024-02-28T02:01:15;34.70;;;18.75;;
25752;SDS011;13600;50.816;4.416;2024-02-28T02:03:42;36.35;;;19.63;;
25752;SDS011;13600;50.816;4.416;2024-02-28T02:06:09;34.63;;;19.58;;
25752;SDS011;13600;50.816;4.416;2024-02-28T02:08:36;30.20;;;18.20;;
25752;SDS011;13600;50.816;4.416;2024-02-28T02:11:03;38.05;;;19.33;;
25752;SDS011;13600;50.816;4.416;2024-02-28T02:13:29;33.50;;;20.52;;
25752;SDS011;13600;50.816;4.416;2024-02-28T02:15:55;35.83;;;20.67;;
25752;SDS011;13600;50.816;4.416;2024-02-28T02:18:21;33.28;;;20.15;;
25752;SDS011;13600;50.816;4.416;2024-02-28T02:20:50;35.10;;;19.92;;
25752;SDS011;13600;50.816;4.416;2024-02-28T02:23:27;32.70;;;18.73;;
25752;SDS011;13600;50.816;4.416;2024-02-28T02:25:53;34.17;;;19.38;;
25752;SDS011;13600;50.816;4.416;2024-02-28T02:28:19;35.30;;;18.98;;
25752;SDS011;13600;50.816;4.416;2024-02-28T02:30:45;32.72;;;19.20;;
25752;SDS011;13600;50.816;4.416;2024-02-28T02:33:12;33.80;;;19.40;;
25752;SDS011;13600;50.816;4.416;2024-02-28T02:35:38;33.13;;;17.65;;
25752;SDS011;13600;50.816;4.416;2024-02-28T02:38:04;33.13;;;19.27;;
25752;SDS011;13600;50.816;4.416;2024-02-28T02:40:30;32.63;;;17.00;;
25752;SDS011;13600;50.816;4.416;2024-02-28T02:42:55;32.63;;;17.90;;
25752;SDS011;13600;50.816;4.416;2024-02-28T02:45:21;28.42;;;16.83;;
25752;SDS011;13600;50.816;4.416;2024-02-28T02:47:47;34.28;;;18.75;;
25752;SDS011;13600;50.816;4.416;2024-02-28T02:50:13;28.23;;;16.77;;
25752;SDS011;13600;50.816;4.416;2024-02-28T02:52:38;30.48;;;17.38;;
25752;SDS011;13600;50.816;4.416;2024-02-28T02:55:04;30.83;;;18.20;;
25752;SDS011;13600;50.816;4.416;2024-02-28T02:57:31;31.35;;;16.90;;
25752;SDS011;13600;50.816;4.416;2024-02-28T02:59:58;31.85;;;15.73;;
25752;SDS011;13600;50.816;4.416;2024-02-28T03:02:24;29.33;;;16.40;;
25752;SDS011;13600;50.816;4.416;2024-02-28T03:04:50;30.20;;;16.88;;
25752;SDS011;13600;50.816;4.416;2024-02-28T03:07:15;28.77;;;16.83;;
25752;SDS011;13600;50.816;4.416;2024-02-28T03:09:41;31.05;;;18.40;;
25752;SDS011;13600;50.816;4.416;2024-02-28T03:12:07;32.00;;;16.05;;
25752;SDS011;13600;50.816;4.416;2024-02-28T03:14:35;28.77;;;16.75;;
25752;SDS011;13600;50.816;4.416;2024-02-28T03:17:01;30.52;;;16.33;;
25752;SDS011;13600;50.816;4.416;2024-02-28T03:19:27;30.52;;;17.15;;
25752;SDS011;13600;50.816;4.416;2024-02-28T03:21:53;32.08;;;18.17;;
25752;SDS011;13600;50.816;4.416;2024-02-28T03:24:18;27.95;;;16.52;;
25752;SDS011;13600;50.816;4.416;2024-02-28T03:26:44;27.58;;;16.40;;
25752;SDS011;13600;50.816;4.416;2024-02-28T03:29:10;32.83;;;16.83;;
25752;SDS011;13600;50.816;4.416;2024-02-28T03:31:36;29.50;;;16.55;;
25752;SDS011;13600;50.816;4.416;2024-02-28T03:34:01;29.40;;;16.05;;
25752;SDS011;13600;50.816;4.416;2024-02-28T03:36:28;28.40;;;16.00;;
25752;SDS011;13600;50.816;4.416;2024-02-28T03:38:54;28.98;;;16.35;;
25752;SDS011;13600;50.816;4.416;2024-02-28T03:41:20;30.95;;;17.20;;
25752;SDS011;13600;50.816;4.416;2024-02-28T03:43:46;31.92;;;17.40;;
25752;SDS011;13600;50.816;4.416;2024-02-28T03:46:11;35.60;;;17.88;;
25752;SDS011;13600;50.816;4.416;2024-02-28T03:48:37;34.33;;;17.45;;
25752;SDS011;13600;50.816;4.416;2024-02-28T03:51:03;32.17;;;17.77;;
25752;SDS011;13600;50.816;4.416;2024-02-28T03:53:29;33.13;;;17.13;;
25752;SDS011;13600;50.816;4.416;2024-02-28T03:55:55;34.83;;;18.10;;
25752;SDS011;13600;50.816;4.416;2024-02-28T03:58:21;31.50;;;17.65;;
25752;SDS011;13600;50.816;4.416;2024-02-28T04:00:47;29.73;;;16.60;;
25752;SDS011;13600;50.816;4.416;2024-02-28T04:03:13;36.15;;;16.52;;
25752;SDS011;13600;50.816;4.416;2024-02-28T04:05:39;27.42;;;16.02;;
25752;SDS011;13600;50.816;4.416;2024-02-28T04:08:06;30.55;;;17.13;;
25752;SDS011;13600;50.816;4.416;2024-02-28T04:10:32;33.13;;;16.50;;
25752;SDS011;13600;50.816;4.416;2024-02-28T04:12:58;32.50;;;16.45;;
25752;SDS011;13600;50.816;4.416;2024-02-28T04:15:24;33.72;;;16.63;;
25752;SDS011;13600;50.816;4.416;2024-02-28T04:17:51;31.98;;;16.98;;
25752;SDS011;13600;50.816;4.416;2024-02-28T04:20:17;30.25;;;15.75;;
25752;SDS011;13600;50.816;4.416;2024-02-28T04:22:43;30.17;;;16.65;;
25752;SDS011;13600;50.816;4.416;2024-02-28T04:25:09;29.48;;;16.13;;
25752;SDS011;13600;50.816;4.416;2024-02-28T04:27:36;31.10;;;16.45;;
25752;SDS011;13600;50.816;4.416;2024-02-28T04:30:02;28.92;;;16.38;;
25752;SDS011;13600;50.816;4.416;2024-02-28T04:32:29;29.95;;;16.02;;
25752;SDS011;13600;50.816;4.416;2024-02-28T04:34:55;27.20;;;15.13;;
25752;SDS011;13600;50.816;4.416;2024-02-28T04:37:21;25.48;;;15.57;;
25752;SDS011;13600;50.816;4.416;2024-02-28T04:39:48;29.85;;;15.65;;
25752;SDS011;13600;50.816;4.416;2024-02-28T04:42:14;26.58;;;15.00;;
25752;SDS011;13600;50.816;4.416;2024-02-28T04:44:41;33.78;;;15.60;;
25752;SDS011;13600;50.816;4.416;2024-02-28T04:47:07;28.70;;;14.93;;
25752;SDS011;13600;50.816;4.416;2024-02-28T04:49:33;31.13;;;16.25;;
25752;SDS011;13600;50.816;4.416;2024-02-28T04:52:02;32.30;;;17.00;;
25752;SDS011;13600;50.816;4.416;2024-02-28T04:54:30;33.00;;;17.73;;
25752;SDS011;13600;50.816;4.416;2024-02-28T04:56:56;31.55;;;17.33;;
25752;SDS011;13600;50.816;4.416;2024-02-28T04:59:21;30.70;;;16.42;;
25752;SDS011;13600;50.816;4.416;2024-02-28T05:01:47;34.97;;;17.10;;
25752;SDS011;13600;50.816;4.416;2024-02-28T05:04:13;29.10;;;16.90;;
25752;SDS011;13600;50.816;4.416;2024-02-28T05:06:39;36.38;;;17.17;;
25752;SDS011;13600;50.816;4.416;2024-02-28T05:09:05;30.77;;;17.23;;
25752;SDS011;13600;50.816;4.416;2024-02-28T05:11:31;34.65;;;16.85;;
25752;SDS011;13600;50.816;4.416;2024-02-28T05:13:57;31.33;;;16.60;;
25752;SDS011;13600;50.816;4.416;2024-02-28T05:16:23;32.38;;;16.23;;
25752;SDS011;13600;50.816;4.416;2024-02-28T05:18:49;30.83;;;16.25;;
25752;SDS011;13600;50.816;4.416;2024-02-28T05:21:14;32.70;;;16.83;;
25752;SDS011;13600;50.816;4.416;2024-02-28T05:23:41;30.60;;;17.02;;
25752;SDS011;13600;50.816;4.416;2024-02-28T05:26:07;38.42;;;17.75;;
25752;SDS011;13600;50.816;4.416;2024-02-28T05:28:36;34.25;;;17.58;;
25752;SDS011;13600;50.816;4.416;2024-02-28T05:31:20;32.15;;;17.38;;
25752;SDS011;13600;50.816;4.416;2024-02-28T05:33:47;40.03;;;17.75;;
25752;SDS011;13600;50.816;4.416;2024-02-28T05:36:15;37.60;;;18.58;;
25752;SDS011;13600;50.816;4.416;2024-02-28T05:38:40;33.88;;;17.70;;
25752;SDS011;13600;50.816;4.416;2024-02-28T05:41:07;32.17;;;18.35;;
25752;SDS011;13600;50.816;4.416;2024-02-28T05:43:37;34.92;;;17.63;;
25752;SDS011;13600;50.816;4.416;2024-02-28T05:46:04;34.55;;;19.10;;
25752;SDS011;13600;50.816;4.416;2024-02-28T05:48:30;34.80;;;19.60;;
25752;SDS011;13600;50.816;4.416;2024-02-28T05:50:57;35.67;;;19.67;;
25752;SDS011;13600;50.816;4.416;2024-02-28T05:53:23;39.58;;;21.17;;
25752;SDS011;13600;50.816;4.416;2024-02-28T05:55:52;32.83;;;19.80;;
25752;SDS011;13600;50.816;4.416;2024-02-28T05:58:22;44.17;;;21.23;;
25752;SDS011;13600;50.816;4.416;2024-02-28T06:00:48;42.92;;;20.80;;
25752;SDS011;13600;50.816;4.416;2024-02-28T06:03:14;36.42;;;19.55;;
25752;SDS011;13600;50.816;4.416;2024-02-28T06:05:40;32.17;;;18.08;;
25752;SDS011;13600;50.816;4.416;2024-02-28T06:08:06;37.95;;;19.17;;
25752;SDS011;13600;50.816;4.416;2024-02-28T06:10:31;40.53;;;20.15;;
25752;SDS011;13600;50.816;4.416;2024-02-28T06:12:58;40.47;;;19.92;;
25752;SDS011;13600;50.816;4.416;2024-02-28T06:15:25;35.70;;;19.85;;
25752;SDS011;13600;50.816;4.416;2024-02-28T06:17:51;37.78;;;20.27;;
25752;SDS011;13600;50.816;4.416;2024-02-28T06:20:17;43.97;;;19.42;;
25752;SDS011;13600;50.816;4.416;2024-02-28T06:22:43;40.42;;;21.40;;
25752;SDS011;13600;50.816;4.416;2024-02-28T06:25:08;36.58;;;19.90;;
25752;SDS011;13600;50.816;4.416;2024-02-28T06:27:43;36.10;;;20.45;;
25752;SDS011;13600;50.816;4.416;2024-02-28T06:30:09;44.60;;;20.85;;
25752;SDS011;13600;50.816;4.416;2024-02-28T06:32:37;39.25;;;21.27;;
25752;SDS011;13600;50.816;4.416;2024-02-28T06:35:03;38.08;;;19.95;;
25752;SDS011;13600;50.816;4.416;2024-02-28T06:37:30;41.60;;;20.52;;
25752;SDS011;13600;50.816;4.416;2024-02-28T06:39:55;44.42;;;21.45;;
25752;SDS011;13600;50.816;4.416;2024-02-28T06:42:22;40.33;;;19.85;;
25752;SDS011;13600;50.816;4.416;2024-02-28T06:44:48;35.65;;;18.77;;
25752;SDS011;13600;50.816;4.416;2024-02-28T06:47:14;39.22;;;20.35;;
25752;SDS011;13600;50.816;4.416;2024-02-28T06:49:39;38.47;;;19.80;;
25752;SDS011;13600;50.816;4.416;2024-02-28T06:52:05;39.17;;;19.52;;
25752;SDS011;13600;50.816;4.416;2024-02-28T06:54:31;35.97;;;18.42;;
25752;SDS011;13600;50.816;4.416;2024-02-28T06:56:57;45.38;;;19.85;;
25752;SDS011;13600;50.816;4.416;2024-02-28T06:59:23;39.67;;;18.15;;
25752;SDS011;13600;50.816;4.416;2024-02-28T07:01:49;38.05;;;18.17;;
25752;SDS011;13600;50.816;4.416;2024-02-28T07:04:14;40.35;;;19.58;;
25752;SDS011;13600;50.816;4.416;2024-02-28T07:06:40;44.05;;;19.73;;
25752;SDS011;13600;50.816;4.416;2024-02-28T07:09:10;42.67;;;19.67;;
25752;SDS011;13600;50.816;4.416;2024-02-28T07:11:37;47.38;;;21.08;;
25752;SDS011;13600;50.816;4.416;2024-02-28T07:14:03;46.58;;;20.98;;
25752;SDS011;13600;50.816;4.416;2024-02-28T07:16:30;52.70;;;22.15;;
25752;SDS011;13600;50.816;4.416;2024-02-28T07:18:59;44.22;;;20.35;;
25752;SDS011;13600;50.816;4.416;2024-02-28T07:21:28;46.83;;;21.20;;
25752;SDS011;13600;50.816;4.416;2024-02-28T07:23:56;39.40;;;19.70;;
25752;SDS011;13600;50.816;4.416;2024-02-28T07:26:22;40.63;;;19.27;;
25752;SDS011;13600;50.816;4.416;2024-02-28T07:28:49;35.25;;;17.73;;
25752;SDS011;13600;50.816;4.416;2024-02-28T07:31:16;43.25;;;19.20;;
25752;SDS011;13600;50.816;4.416;2024-02-28T07:33:42;43.58;;;18.88;;
25752;SDS011;13600;50.816;4.416;2024-02-28T07:36:08;55.35;;;19.35;;
25752;SDS011;13600;50.816;4.416;2024-02-28T07:38:35;38.03;;;18.23;;
25752;SDS011;13600;50.816;4.416;2024-02-28T07:41:01;43.50;;;19.33;;
25752;SDS011;13600;50.816;4.416;2024-02-28T07:43:27;39.30;;;18.63;;
25752;SDS011;13600;50.816;4.416;2024-02-28T07:45:53;49.88;;;19.73;;
25752;SDS011;13600;50.816;4.416;2024-02-28T07:48:20;43.10;;;18.63;;
25752;SDS011;13600;50.816;4.416;2024-02-28T07:50:46;45.95;;;19.95;;
25752;SDS011;13600;50.816;4.416;2024-02-28T07:53:14;40.90;;;20.13;;
25752;SDS011;13600;50.816;4.416;2024-02-28T07:55:41;46.50;;;19.70;;
25752;SDS011;13600;50.816;4.416;2024-02-28T07:58:07;40.03;;;19.75;;
25752;SDS011;13600;50.816;4.416;2024-02-28T08:00:37;48.33;;;21.60;;
25752;SDS011;13600;50.816;4.416;2024-02-28T08:03:03;57.33;;;22.00;;
25752;SDS011;13600;50.816;4.416;2024-02-28T08:05:30;53.67;;;20.52;;
25752;SDS011;13600;50.816;4.416;2024-02-28T08:07:59;46.30;;;20.48;;
25752;SDS011;13600;50.816;4.416;2024-02-28T08:10:26;48.17;;;20.50;;
25752;SDS011;13600;50.816;4.416;2024-02-28T08:12:51;48.75;;;21.85;;
25752;SDS011;13600;50.816;4.416;2024-02-28T08:15:17;54.78;;;22.23;;
25752;SDS011;13600;50.816;4.416;2024-02-28T08:17:43;45.65;;;19.67;;
25752;SDS011;13600;50.816;4.416;2024-02-28T08:20:09;51.85;;;20.67;;
25752;SDS011;13600;50.816;4.416;2024-02-28T08:22:34;45.95;;;19.85;;
25752;SDS011;13600;50.816;4.416;2024-02-28T08:25:00;48.90;;;20.10;;
25752;SDS011;13600;50.816;4.416;2024-02-28T08:27:26;51.40;;;20.33;;
25752;SDS011;13600;50.816;4.416;2024-02-28T08:29:53;48.55;;;21.02;;
25752;SDS011;13600;50.816;4.416;2024-02-28T08:32:19;57.17;;;20.73;;
25752;SDS011;13600;50.816;4.416;2024-02-28T08:34:45;49.15;;;19.30;;
25752;SDS011;13600;50.816;4.416;2024-02-28T08:37:11;52.78;;;20.65;;
25752;SDS011;13600;50.816;4.416;2024-02-28T08:39:38;42.65;;;19.58;;
25752;SDS011;13600;50.816;4.416;2024-02-28T08:42:03;49.90;;;19.75;;
25752;SDS011;13600;50.816;4.416;2024-02-28T08:44:30;45.85;;;18.17;;
25752;SDS011;13600;50.816;4.416;2024-02-28T08:46:56;44.85;;;17.50;;
25752;SDS011;13600;50.816;4.416;2024-02-28T08:49:22;47.13;;;19.45;;
25752;SDS011;13600;50.816;4.416;2024-02-28T08:51:47;48.05;;;19.00;;
25752;SDS011;13600;50.816;4.416;2024-02-28T08:54:13;48.20;;;18.63;;
25752;SDS011;13600;50.816;4.416;2024-02-28T08:56:39;48.50;;;19.95;;
25752;SDS011;13600;50.816;4.416;2024-02-28T08:59:05;47.25;;;19.10;;
25752;SDS011;13600;50.816;4.416;2024-02-28T09:01:30;44.42;;;18.58;;
25752;SDS011;13600;50.816;4.416;2024-02-28T09:03:58;47.80;;;18.50;;
25752;SDS011;13600;50.816;4.416;2024-02-28T09:06:25;45.35;;;19.08;;
25752;SDS011;13600;50.816;4.416;2024-02-28T09:08:50;41.25;;;18.58;;
25752;SDS011;13600;50.816;4.416;2024-02-28T09:11:16;46.30;;;19.13;;
25752;SDS011;13600;50.816;4.416;2024-02-28T09:13:42;46.38;;;18.30;;
25752;SDS011;13600;50.816;4.416;2024-02-28T09:16:07;47.08;;;18.65;;
25752;SDS011;13600;50.816;4.416;2024-02-28T09:18:33;44.67;;;18.48;;
25752;SDS011;13600;50.816;4.416;2024-02-28T09:20:59;47.30;;;17.75;;
25752;SDS011;13600;50.816;4.416;2024-02-28T09:23:25;45.95;;;18.08;;
25752;SDS011;13600;50.816;4.416;2024-02-28T09:25:50;44.60;;;17.92;;
25752;SDS011;13600;50.816;4.416;2024-02-28T09:28:16;58.42;;;18.45;;
25752;SDS011;13600;50.816;4.416;2024-02-28T09:30:42;52.58;;;18.80;;
25752;SDS011;13600;50.816;4.416;2024-02-28T09:33:08;48.67;;;18.25;;
25752;SDS011;13600;50.816;4.416;2024-02-28T09:35:37;43.72;;;17.67;;
25752;SDS011;13600;50.816;4.416;2024-02-28T09:38:03;52.10;;;17.40;;
25752;SDS011;13600;50.816;4.416;2024-02-28T09:40:30;36.70;;;15.77;;
25752;SDS011;13600;50.816;4.416;2024-02-28T09:43:05;49.83;;;16.52;;
25752;SDS011;13600;50.816;4.416;2024-02-28T09:45:40;49.15;;;16.08;;
25752;SDS011;13600;50.816;4.416;2024-02-28T09:48:06;47.05;;;16.73;;
25752;SDS011;13600;50.816;4.416;2024-02-28T09:50:35;43.90;;;16.45;;
25752;SDS011;13600;50.816;4.416;2024-02-28T09:53:02;41.88;;;15.98;;
25752;SDS011;13600;50.816;4.416;2024-02-28T09:55:28;47.03;;;17.30;;
25752;SDS011;13600;50.816;4.416;2024-02-28T09:57:54;41.53;;;16.60;;
25752;SDS011;13600;50.816;4.416;2024-02-28T10:00:20;53.53;;;17.02;;
25752;SDS011;13600;50.816;4.416;2024-02-28T10:02:47;45.85;;;16.33;;
25752;SDS011;13600;50.816;4.416;2024-02-28T10:05:17;42.28;;;17.05;;
25752;SDS011;13600;50.816;4.416;2024-02-28T10:07:45;45.50;;;17.52;;
25752;SDS011;13600;50.816;4.416;2024-02-28T10:10:12;43.83;;;16.73;;
25752;SDS011;13600;50.816;4.416;2024-02-28T10:12:41;43.85;;;18.13;;
25752;SDS011;13600;50.816;4.416;2024-02-28T10:15:07;48.08;;;18.05;;
25752;SDS011;13600;50.816;4.416;2024-02-28T10:17:35;45.95;;;17.30;;
25752;SDS011;13600;50.816;4.416;2024-02-28T10:20:01;39.00;;;16.58;;
25752;SDS011;13600;50.816;4.416;2024-02-28T10:22:38;48.85;;;17.50;;
25752;SDS011;13600;50.816;4.416;2024-02-28T10:25:04;40.28;;;16.98;;
25752;SDS011;13600;50.816;4.416;2024-02-28T10:27:34;35.72;;;14.98;;
25752;SDS011;13600;50.816;4.416;2024-02-28T10:30:01;41.03;;;17.15;;
25752;SDS011;13600;50.816;4.416;2024-02-28T10:32:31;32.60;;;15.05;;
25752;SDS011;13600;50.816;4.416;2024-02-28T10:34:59;43.33;;;14.88;;
25752;SDS011;13600;50.816;4.416;2024-02-28T10:37:26;34.65;;;14.75;;
25752;SDS011;13600;50.816;4.416;2024-02-28T10:39:58;37.97;;;14.13;;
25752;SDS011;13600;50.816;4.416;2024-02-28T10:42:27;28.35;;;13.80;;
25752;SDS011;13600;50.816;4.416;2024-02-28T10:44:55;33.50;;;13.55;;
25752;SDS011;13600;50.816;4.416;2024-02-28T10:47:27;35.58;;;13.95;;
25752;SDS011;13600;50.816;4.416;2024-02-28T10:49:56;31.15;;;14.52;;
25752;SDS011;13600;50.816;4.416;2024-02-28T10:52:23;26.92;;;12.90;;
25752;SDS011;13600;50.816;4.416;2024-02-28T10:54:54;30.10;;;13.43;;
25752;SDS011;13600;50.816;4.416;2024-02-28T10:57:21;28.45;;;12.48;;
25752;SDS011;13600;50.816;4.416;2024-02-28T10:59:50;26.92;;;11.85;;
25752;SDS011;13600;50.816;4.416;2024-02-28T11:02:16;24.90;;;11.50;;
25752;SDS011;13600;50.816;4.416;2024-02-28T11:04:43;20.00;;;11.48;;
25752;SDS011;13600;50.816;4.416;2024-02-28T11:07:09;25.38;;;11.80;;
25752;SDS011;13600;50.816;4.416;2024-02-28T11:09:35;24.10;;;11.48;;
25752;SDS011;13600;50.816;4.416;2024-02-28T11:12:03;21.95;;;11.45;;
25752;SDS011;13600;50.816;4.416;2024-02-28T11:14:29;30.63;;;11.00;;
25752;SDS011;13600;50.816;4.416;2024-02-28T11:17:04;22.45;;;10.32;;
25752;SDS011;13600;50.816;4.416;2024-02-28T11:19:31;25.90;;;9.95;;
25752;SDS011;13600;50.816;4.416;2024-02-28T11:22:01;20.70;;;9.10;;
25752;SDS011;13600;50.816;4.416;2024-02-28T11:24:29;22.48;;;9.48;;
25752;SDS011;13600;50.816;4.416;2024-02-28T11:26:56;21.10;;;9.38;;
25752;SDS011;13600;50.816;4.416;2024-02-28T11:29:23;23.42;;;8.85;;
25752;SDS011;13600;50.816;4.416;2024-02-28T11:31:50;17.25;;;8.07;;
25752;SDS011;13600;50.816;4.416;2024-02-28T11:34:16;17.60;;;8.15;;
25752;SDS011;13600;50.816;4.416;2024-02-28T11:36:42;15.23;;;7.78;;
25752;SDS011;13600;50.816;4.416;2024-02-28T11:39:07;13.70;;;7.15;;
25752;SDS011;13600;50.816;4.416;2024-02-28T11:41:33;13.63;;;7.38;;
25752;SDS011;13600;50.816;4.416;2024-02-28T11:43:59;14.20;;;6.80;;
25752;SDS011;13600;50.816;4.416;2024-02-28T11:46:26;16.77;;;7.10;;
25752;SDS011;13600;50.816;4.416;2024-02-28T11:48:52;15.02;;;6.82;;
25752;SDS011;13600;50.816;4.416;2024-02-28T11:51:19;11.38;;;6.30;;
25752;SDS011;13600;50.816;4.416;2024-02-28T11:53:45;12.98;;;6.43;;
25752;SDS011;13600;50.816;4.416;2024-02-28T11:56:11;17.70;;;6.13;;
25752;SDS011;13600;50.816;4.416;2024-02-28T11:58:48;9.40;;;5.00;;
25752;SDS011;13600;50.816;4.416;2024-02-28T12:01:17;12.57;;;5.35;;
25752;SDS011;13600;50.816;4.416;2024-02-28T12:03:46;8.70;;;4.78;;
25752;SDS011;13600;50.816;4.416;2024-02-28T12:06:11;11.88;;;5.40;;
25752;SDS011;13600;50.816;4.416;2024-02-28T12:08:37;10.07;;;5.07;;
25752;SDS011;13600;50.816;4.416;2024-02-28T12:11:06;11.65;;;5.20;;
25752;SDS011;13600;50.816;4.416;2024-02-28T12:13:33;12.48;;;5.20;;
25752;SDS011;13600;50.816;4.416;2024-02-28T12:16:00;12.65;;;5.35;;
25752;SDS011;13600;50.816;4.416;2024-02-28T12:18:26;11.38;;;5.53;;
25752;SDS011;13600;50.816;4.416;2024-02-28T12:20:53;12.60;;;5.57;;
25752;SDS011;13600;50.816;4.416;2024-02-28T12:23:19;10.65;;;5.38;;
25752;SDS011;13600;50.816;4.416;2024-02-28T12:25:45;11.52;;;5.47;;
25752;SDS011;13600;50.816;4.416;2024-02-28T12:28:11;9.73;;;5.05;;
25752;SDS011;13600;50.816;4.416;2024-02-28T12:30:42;9.85;;;4.88;;
25752;SDS011;13600;50.816;4.416;2024-02-28T12:33:10;10.18;;;4.90;;
25752;SDS011;13600;50.816;4.416;2024-02-28T12:35:36;13.85;;;5.00;;
25752;SDS011;13600;50.816;4.416;2024-02-28T12:38:02;10.90;;;4.78;;
25752;SDS011;13600;50.816;4.416;2024-02-28T12:40:28;13.30;;;5.60;;
25752;SDS011;13600;50.816;4.416;2024-02-28T12:42:54;15.32;;;6.13;;
25752;SDS011;13600;50.816;4.416;2024-02-28T12:45:19;11.50;;;5.70;;
25752;SDS011;13600;50.816;4.416;2024-02-28T12:47:45;10.93;;;5.85;;
25752;SDS011;13600;50.816;4.416;2024-02-28T12:50:11;13.82;;;6.35;;
25752;SDS011;13600;50.816;4.416;2024-02-28T12:52:37;13.50;;;6.13;;
25752;SDS011;13600;50.816;4.416;2024-02-28T12:55:03;16.02;;;7.13;;
25752;SDS011;13600;50.816;4.416;2024-02-28T12:57:29;21.52;;;7.28;;
25752;SDS011;13600;50.816;4.416;2024-02-28T12:59:55;13.57;;;5.78;;
25752;SDS011;13600;50.816;4.416;2024-02-28T13:02:21;19.02;;;6.40;;
25752;SDS011;13600;50.816;4.416;2024-02-28T13:04:47;12.55;;;6.22;;
25752;SDS011;13600;50.816;4.416;2024-02-28T13:07:14;12.60;;;5.90;;
25752;SDS011;13600;50.816;4.416;2024-02-28T13:09:41;11.65;;;5.53;;
25752;SDS011;13600;50.816;4.416;2024-02-28T13:12:07;11.35;;;5.28;;
25752;SDS011;13600;50.816;4.416;2024-02-28T13:14:33;14.82;;;5.50;;
25752;SDS011;13600;50.816;4.416;2024-02-28T13:16:59;11.40;;;5.80;;
25752;SDS011;13600;50.816;4.416;2024-02-28T13:19:25;13.98;;;5.97;;
25752;SDS011;13600;50.816;4.416;2024-02-28T13:21:51;10.38;;;5.35;;
25752;SDS011;13600;50.816;4.416;2024-02-28T13:24:17;12.55;;;5.32;;
25752;SDS011;13600;50.816;4.416;2024-02-28T13:26:43;12.88;;;6.05;;
25752;SDS011;13600;50.816;4.416;2024-02-28T13:29:09;11.63;;;6.03;;
25752;SDS011;13600;50.816;4.416;2024-02-28T13:31:35;11.02;;;5.68;;
25752;SDS011;13600;50.816;4.416;2024-02-28T13:34:01;9.00;;;5.68;;
25752;SDS011;13600;50.816;4.416;2024-02-28T13:36:28;11.43;;;5.93;;
25752;SDS011;13600;50.816;4.416;2024-02-28T13:38:55;8.10;;;5.22;;
25752;SDS011;13600;50.816;4.416;2024-02-28T13:41:21;10.13;;;5.65;;
25752;SDS011;13600;50.816;4.416;2024-02-28T13:43:47;12.40;;;6.15;;
25752;SDS011;13600;50.816;4.416;2024-02-28T13:46:12;9.93;;;6.13;;
25752;SDS011;13600;50.816;4.416;2024-02-28T13:48:39;12.52;;;5.93;;
25752;SDS011;13600;50.816;4.416;2024-02-28T13:51:05;7.57;;;5.47;;
25752;SDS011;13600;50.816;4.416;2024-02-28T13:53:31;8.20;;;5.18;;
25752;SDS011;13600;50.816;4.416;2024-02-28T13:55:56;9.40;;;5.78;;
25752;SDS011;13600;50.816;4.416;2024-02-28T13:58:22;10.55;;;5.53;;
25752;SDS011;13600;50.816;4.416;2024-02-28T14:00:48;7.80;;;5.32;;
25752;SDS011;13600;50.816;4.416;2024-02-28T14:03:14;7.18;;;4.50;;
25752;SDS011;13600;50.816;4.416;2024-02-28T14:05:40;8.07;;;4.53;;
25752;SDS011;13600;50.816;4.416;2024-02-28T14:08:06;7.97;;;4.18;;
25752;SDS011;13600;50.816;4.416;2024-02-28T14:10:37;7.95;;;4.32;;
25752;SDS011;13600;50.816;4.416;2024-02-28T14:13:03;7.40;;;4.13;;
25752;SDS011;13600;50.816;4.416;2024-02-28T14:15:28;9.35;;;4.78;;
25752;SDS011;13600;50.816;4.416;2024-02-28T14:17:54;9.13;;;4.47;;
25752;SDS011;13600;50.816;4.416;2024-02-28T14:20:20;11.18;;;6.35;;
25752;SDS011;13600;50.816;4.416;2024-02-28T14:22:46;13.40;;;7.43;;